createdAt,value
2023-03-29T00:02:30.095Z,43.90
2023-03-29T00:05:35.043Z,44.45
2023-03-29T00:08:37.954Z,44.32
2023-03-29T00:11:39.514Z,44.68
2023-03-29T00:14:41.062Z,44.89
2023-03-29T00:17:42.558Z,45.13
2023-03-29T00:20:44.159Z,45.21
2023-03-29T00:23:45.762Z,45.01
2023-03-29T00:26:47.285Z,45.14
2023-03-29T00:29:48.756Z,45.46
2023-03-29T00:32:51.446Z,44.96
2023-03-29T00:35:53.330Z,44.54
2023-03-29T00:38:56.392Z,43.71
2023-03-29T00:41:59.099Z,43.59
2023-03-29T00:45:04.098Z,43.33
2023-03-29T00:48:32.781Z,43.58
2023-03-29T00:51:38.216Z,43.15
2023-03-29T00:54:44.681Z,43.13
2023-03-29T00:57:46.899Z,43.03
2023-03-29T01:00:55.446Z,43.73
2023-03-29T01:04:09.901Z,43.98
2023-03-29T01:07:23.229Z,44.32
2023-03-29T01:10:38.874Z,43.95
2023-03-29T01:13:57.725Z,44.32
2023-03-29T01:16:59.397Z,43.81
2023-03-29T01:20:14.261Z,44.44
2023-03-29T01:23:22.177Z,44.50
2023-03-29T01:26:56.098Z,44.86
2023-03-29T01:30:02.040Z,44.85
2023-03-29T01:33:12.576Z,45.07
2023-03-29T01:36:34.941Z,45.12
2023-03-29T01:39:36.474Z,45.23
2023-03-29T01:42:56.605Z,45.11
2023-03-29T01:46:08.321Z,45.02
2023-03-29T01:49:17.183Z,45.18
2023-03-29T01:52:25.743Z,45.40
2023-03-29T01:55:33.402Z,45.34
2023-03-29T01:58:41.553Z,45.28
2023-03-29T02:01:53.915Z,45.23
2023-03-29T02:04:57.465Z,45.30
2023-03-29T02:08:01.659Z,45.53
2023-03-29T02:11:04.664Z,45.93
2023-03-29T02:14:07.671Z,45.54
2023-03-29T02:17:28.354Z,45.36
2023-03-29T02:20:40.509Z,45.71
2023-03-29T02:23:45.938Z,45.78
2023-03-29T02:26:48.763Z,45.73
2023-03-29T02:29:50.511Z,45.38
2023-03-29T02:33:04.881Z,44.98
2023-03-29T02:36:13.302Z,44.91
2023-03-29T02:39:17.701Z,44.83
2023-03-29T02:42:20.455Z,44.95
2023-03-29T02:45:24.042Z,44.23
2023-03-29T02:48:28.598Z,43.95
2023-03-29T02:51:34.106Z,44.04
2023-03-29T02:54:37.982Z,43.69
2023-03-29T02:57:40.921Z,43.74
2023-03-29T03:00:46.349Z,44.46
2023-03-29T03:03:48.066Z,44.11
2023-03-29T03:06:50.107Z,43.96
2023-03-29T03:09:51.942Z,44.33
2023-03-29T03:12:53.558Z,44.28
2023-03-29T03:15:56.197Z,44.46
2023-03-29T03:18:57.814Z,44.32
2023-03-29T03:21:59.718Z,44.76
2023-03-29T03:25:01.259Z,44.69
2023-03-29T03:28:02.794Z,44.35
2023-03-29T03:31:05.215Z,44.37
2023-03-29T03:34:32.349Z,44.09
2023-03-29T03:37:35.716Z,43.66
2023-03-29T03:40:37.247Z,43.97
2023-03-29T03:43:41.496Z,43.73
2023-03-29T03:46:43.087Z,43.48
2023-03-29T03:49:45.229Z,43.45
2023-03-29T03:52:47.215Z,43.63
2023-03-29T03:55:55.909Z,42.63
2023-03-29T03:59:01.050Z,42.26
2023-03-29T04:02:06.687Z,41.72
2023-03-29T04:05:08.945Z,41.19
2023-03-29T04:08:14.008Z,41.31
2023-03-29T04:11:54.063Z,40.10
2023-03-29T04:14:56.043Z,38.68
2023-03-29T04:18:00.651Z,38.18
2023-03-29T04:21:08.191Z,37.67
2023-03-29T04:24:10.400Z,36.61
2023-03-29T04:27:15.013Z,35.36
2023-03-29T04:30:17.047Z,35.08
2023-03-29T04:33:46.664Z,34.50
2023-03-29T04:36:52.995Z,34.16
2023-03-29T04:40:00.333Z,33.90
2023-03-29T04:43:04.471Z,33.55
2023-03-29T04:46:07.847Z,33.42
2023-03-29T04:49:27.414Z,33.30
2023-03-29T04:52:33.011Z,32.81
2023-03-29T04:55:35.671Z,32.69
2023-03-29T04:58:37.371Z,33.02
2023-03-29T05:01:39.559Z,32.91
2023-03-29T05:04:41.273Z,32.69
2023-03-29T05:07:48.113Z,32.05
2023-03-29T05:10:52.320Z,31.76
2023-03-29T05:13:57.137Z,31.82
2023-03-29T05:17:01.382Z,31.36
2023-03-29T05:20:10.469Z,31.42
2023-03-29T05:23:12.924Z,31.18
2023-03-29T05:26:33.783Z,31.43
2023-03-29T05:29:35.506Z,31.81
2023-03-29T05:33:10.401Z,32.01
2023-03-29T05:36:15.600Z,32.39
2023-03-29T05:39:23.478Z,32.60
2023-03-29T05:42:25.185Z,32.52
2023-03-29T05:45:32.435Z,32.45
2023-03-29T05:48:34.311Z,32.39
2023-03-29T05:51:36.354Z,32.51
2023-03-29T05:54:37.827Z,32.51
2023-03-29T05:57:40.665Z,32.48
2023-03-29T06:00:43.788Z,32.57
2023-03-29T06:04:06.493Z,32.60
2023-03-29T06:07:16.447Z,32.11
2023-03-29T06:10:24.708Z,32.38
2023-03-29T06:13:37.730Z,32.64
2023-03-29T06:16:42.179Z,32.80
2023-03-29T06:19:44.927Z,32.30
2023-03-29T06:22:47.909Z,32.35
2023-03-29T06:25:51.385Z,32.21
2023-03-29T06:28:53.369Z,32.31
2023-03-29T06:31:57.163Z,32.25
2023-03-29T06:35:20.690Z,32.05
2023-03-29T06:38:29.156Z,31.77
2023-03-29T06:41:33.811Z,31.39
2023-03-29T06:44:41.267Z,31.17
2023-03-29T06:47:52.652Z,31.13
2023-03-29T06:50:54.614Z,31.11
2023-03-29T06:53:59.414Z,30.92
2023-03-29T06:57:03.859Z,30.84
2023-03-29T07:00:18.938Z,30.42
2023-03-29T07:03:39.146Z,30.41
2023-03-29T07:06:40.863Z,30.33
2023-03-29T07:09:42.369Z,30.28
2023-03-29T07:13:02.432Z,30.63
2023-03-29T07:16:04.218Z,30.75
2023-03-29T07:19:25.198Z,30.88
2023-03-29T07:22:29.580Z,30.83
2023-03-29T07:25:36.264Z,30.82
2023-03-29T07:28:39.294Z,30.87
2023-03-29T07:31:41.566Z,30.82
2023-03-29T07:35:04.212Z,30.75
2023-03-29T07:38:09.484Z,30.82
2023-03-29T07:41:14.455Z,30.79
2023-03-29T07:44:29.406Z,30.86
2023-03-29T07:47:31.456Z,30.99
2023-03-29T07:50:33.673Z,30.66
2023-03-29T07:53:38.498Z,30.30
2023-03-29T07:56:47.578Z,30.21
2023-03-29T08:00:16.992Z,30.47
2023-03-29T08:03:28.817Z,30.09
2023-03-29T08:06:30.815Z,30.30
2023-03-29T08:09:32.343Z,30.71
2023-03-29T08:12:34.095Z,30.29
2023-03-29T08:15:42.077Z,30.41
2023-03-29T08:18:53.712Z,30.50
2023-03-29T08:21:57.578Z,30.53
2023-03-29T08:25:02.610Z,30.68
2023-03-29T08:28:08.617Z,30.13
2023-03-29T08:31:18.247Z,29.91
2023-03-29T08:34:20.410Z,29.74
2023-03-29T08:37:47.408Z,29.31
2023-03-29T08:40:50.708Z,29.26
2023-03-29T08:44:10.770Z,29.37
2023-03-29T08:47:41.636Z,29.76
2023-03-29T08:50:52.763Z,29.69
2023-03-29T08:54:34.094Z,29.41
2023-03-29T08:57:47.842Z,29.24
2023-03-29T09:00:59.394Z,29.21
2023-03-29T09:04:10.180Z,29.24
2023-03-29T09:07:26.892Z,29.33
2023-03-29T09:10:50.204Z,29.06
2023-03-29T09:14:22.271Z,29.27
2023-03-29T09:17:43.334Z,29.31
2023-03-29T09:21:00.508Z,29.24
2023-03-29T09:24:56.374Z,29.38
2023-03-29T09:28:25.832Z,29.34
2023-03-29T09:31:37.184Z,28.99
2023-03-29T09:34:45.643Z,28.69
2023-03-29T09:37:54.679Z,28.70
2023-03-29T09:41:04.213Z,28.70
2023-03-29T09:44:20.569Z,28.58
2023-03-29T09:47:36.059Z,28.59
2023-03-29T09:50:48.776Z,29.11
2023-03-29T09:53:50.556Z,28.87
2023-03-29T09:57:05.737Z,28.93
2023-03-29T10:00:10.576Z,28.48
2023-03-29T10:03:20.494Z,29.10
2023-03-29T10:06:28.599Z,28.56
2023-03-29T10:09:35.694Z,28.46
2023-03-29T10:12:54.091Z,28.71
2023-03-29T10:16:01.397Z,28.82
2023-03-29T10:19:36.837Z,28.89
2023-03-29T10:22:40.445Z,28.86
2023-03-29T10:25:43.027Z,29.04
2023-03-29T10:28:44.861Z,29.45
2023-03-29T10:31:46.497Z,29.52
2023-03-29T10:34:49.826Z,29.90
2023-03-29T10:37:53.306Z,29.45
2023-03-29T10:41:03.598Z,29.48
2023-03-29T10:44:05.566Z,29.24
2023-03-29T10:47:16.006Z,29.35
2023-03-29T10:50:17.567Z,29.35
2023-03-29T10:53:31.653Z,28.92
2023-03-29T10:56:45.169Z,28.82
2023-03-29T10:59:55.654Z,28.38
2023-03-29T11:03:14.459Z,28.35
2023-03-29T11:06:54.219Z,28.13
2023-03-29T11:10:05.677Z,28.25
2023-03-29T11:13:38.922Z,28.16
2023-03-29T11:16:55.335Z,28.11
2023-03-29T11:20:15.873Z,28.10
2023-03-29T11:23:45.829Z,27.52
2023-03-29T11:27:05.958Z,27.32
2023-03-29T11:30:43.417Z,26.50
2023-03-29T11:33:57.084Z,25.25
2023-03-29T11:37:26.699Z,25.86
2023-03-29T11:40:44.971Z,25.48
2023-03-29T11:43:52.902Z,25.34
2023-03-29T11:47:08.259Z,25.23
2023-03-29T11:50:21.574Z,25.16
2023-03-29T11:53:31.529Z,25.30
2023-03-29T11:56:52.184Z,25.31
2023-03-29T12:00:07.508Z,24.94
2023-03-29T12:03:37.074Z,25.75
2023-03-29T12:06:47.684Z,25.57
2023-03-29T12:09:55.006Z,25.38
2023-03-29T12:13:03.141Z,25.47
2023-03-29T12:16:28.054Z,25.01
2023-03-29T12:19:43.207Z,25.13
2023-03-29T12:22:49.172Z,25.03
2023-03-29T12:26:00.415Z,24.70
2023-03-29T12:29:38.942Z,24.77
2023-03-29T12:32:57.631Z,24.90
2023-03-29T12:36:52.007Z,24.81
2023-03-29T12:40:16.521Z,25.05
2023-03-29T12:43:41.517Z,25.33
2023-03-29T12:47:01.458Z,25.76
2023-03-29T12:50:04.640Z,25.71
2023-03-29T12:53:13.346Z,25.78
2023-03-29T12:56:20.801Z,25.46
2023-03-29T12:59:27.181Z,25.71
2023-03-29T13:02:36.999Z,25.48
2023-03-29T13:05:39.184Z,25.36
2023-03-29T13:08:42.487Z,25.70
2023-03-29T13:11:45.617Z,25.51
2023-03-29T13:14:52.573Z,25.76
2023-03-29T13:18:09.136Z,25.66
2023-03-29T13:21:40.864Z,25.63
2023-03-29T13:24:48.549Z,25.71
2023-03-29T13:28:06.061Z,25.15
2023-03-29T13:31:27.373Z,25.37
2023-03-29T13:34:40.117Z,25.10
2023-03-29T13:38:00.380Z,25.45
2023-03-29T13:41:05.006Z,25.67
2023-03-29T13:44:27.152Z,25.18
2023-03-29T13:47:43.235Z,25.64
2023-03-29T13:51:01.098Z,25.45
2023-03-29T13:54:32.170Z,25.88
2023-03-29T13:57:41.303Z,25.38
2023-03-29T14:01:07.229Z,25.54
2023-03-29T14:04:20.888Z,25.88
2023-03-29T14:07:26.231Z,25.68
2023-03-29T14:10:40.929Z,25.79
2023-03-29T14:13:43.175Z,25.65
2023-03-29T14:16:44.768Z,25.73
2023-03-29T14:19:47.467Z,26.01
2023-03-29T14:22:49.517Z,25.92
2023-03-29T14:25:51.638Z,25.37
2023-03-29T14:28:56.676Z,25.60
2023-03-29T14:32:09.515Z,25.74
2023-03-29T14:35:11.094Z,25.83
2023-03-29T14:38:12.870Z,25.90
2023-03-29T14:41:14.642Z,25.78
2023-03-29T14:44:18.673Z,25.14
2023-03-29T14:47:29.556Z,25.33
2023-03-29T14:50:31.438Z,24.65
2023-03-29T14:53:34.554Z,24.62
2023-03-29T14:56:36.633Z,24.71
2023-03-29T14:59:41.320Z,24.83
2023-03-29T15:03:00.181Z,25.36
2023-03-29T15:06:04.622Z,25.63
2023-03-29T15:09:07.077Z,25.83
2023-03-29T15:12:16.187Z,25.87
2023-03-29T15:15:18.098Z,26.38
2023-03-29T15:18:27.043Z,27.14
2023-03-29T15:21:34.042Z,26.90
2023-03-29T15:24:43.218Z,26.63
2023-03-29T15:27:44.749Z,26.66
2023-03-29T15:30:54.257Z,26.52
2023-03-29T15:34:12.481Z,26.63
2023-03-29T15:37:14.012Z,26.46
2023-03-29T15:40:17.131Z,26.99
2023-03-29T15:43:21.217Z,26.85
2023-03-29T15:46:22.790Z,27.23
2023-03-29T15:49:24.881Z,27.13
2023-03-29T15:52:26.358Z,27.11
2023-03-29T15:55:29.847Z,26.85
2023-03-29T15:58:33.488Z,26.89
2023-03-29T16:01:37.396Z,27.02
2023-03-29T16:04:39.263Z,27.04
2023-03-29T16:07:43.738Z,27.14
2023-03-29T16:10:51.015Z,27.30
2023-03-29T16:13:52.779Z,27.37
2023-03-29T16:16:55.833Z,27.34
2023-03-29T16:19:58.494Z,27.30
2023-03-29T16:23:09.404Z,27.54
2023-03-29T16:26:12.839Z,27.66
2023-03-29T16:29:15.969Z,27.66
2023-03-29T16:32:17.594Z,27.91
2023-03-29T16:35:26.128Z,27.49
2023-03-29T16:38:29.146Z,27.81
2023-03-29T16:41:31.520Z,28.01
2023-03-29T16:44:33.075Z,28.20
2023-03-29T16:47:34.571Z,27.87
2023-03-29T16:50:36.203Z,28.00
2023-03-29T16:53:38.069Z,28.81
2023-03-29T16:56:39.599Z,31.01
2023-03-29T16:59:44.962Z,33.49
2023-03-29T17:02:49.749Z,35.17
2023-03-29T17:05:53.586Z,36.02
2023-03-29T17:08:55.009Z,36.60
2023-03-29T17:11:56.445Z,36.88
2023-03-29T17:14:58.005Z,36.42
2023-03-29T17:17:59.517Z,36.20
2023-03-29T17:21:01.911Z,36.17
2023-03-29T17:24:03.814Z,35.85
2023-03-29T17:27:05.357Z,36.31
2023-03-29T17:30:07.346Z,36.93
2023-03-29T17:33:08.866Z,38.01
2023-03-29T17:36:11.112Z,37.93
2023-03-29T17:39:15.210Z,37.82
2023-03-29T17:42:17.337Z,38.19
2023-03-29T17:45:19.768Z,37.89
2023-03-29T17:48:22.850Z,39.20
2023-03-29T17:51:24.723Z,40.11
2023-03-29T17:54:26.273Z,41.09
2023-03-29T17:57:28.097Z,42.20
2023-03-29T18:00:29.651Z,43.04
2023-03-29T18:03:31.890Z,43.13
2023-03-29T18:06:34.931Z,43.38
2023-03-29T18:09:36.904Z,43.26
2023-03-29T18:12:38.748Z,43.30
2023-03-29T18:15:55.706Z,43.87
2023-03-29T18:18:57.266Z,44.33
2023-03-29T18:21:58.850Z,44.77
2023-03-29T18:25:00.341Z,47.15
2023-03-29T18:28:01.779Z,44.56
2023-03-29T18:31:04.375Z,44.36
2023-03-29T18:34:05.898Z,43.79
2023-03-29T18:37:09.220Z,43.53
2023-03-29T18:40:11.127Z,43.27
2023-03-29T18:43:12.814Z,43.49
2023-03-29T18:46:14.633Z,42.88
2023-03-29T18:49:16.412Z,42.65
2023-03-29T18:52:17.952Z,42.12
2023-03-29T18:55:19.412Z,41.68
2023-03-29T18:58:23.968Z,40.84
2023-03-29T19:01:26.033Z,40.60
2023-03-29T19:04:28.733Z,40.56
2023-03-29T19:07:30.409Z,40.26
2023-03-29T19:10:39.282Z,40.75
2023-03-29T19:13:41.413Z,40.88
2023-03-29T19:16:43.056Z,40.95
2023-03-29T19:19:44.833Z,40.26
2023-03-29T19:22:46.625Z,40.17
2023-03-29T19:26:00.254Z,40.33
2023-03-29T19:29:01.835Z,40.60
2023-03-29T19:32:03.739Z,39.47
2023-03-29T19:35:05.796Z,38.53
2023-03-29T19:38:07.365Z,38.40
2023-03-29T19:41:08.950Z,39.25
2023-03-29T19:44:10.523Z,40.03
2023-03-29T19:47:12.060Z,40.59
2023-03-29T19:50:14.224Z,41.11
2023-03-29T19:53:15.909Z,41.49
2023-03-29T19:56:17.783Z,42.20
2023-03-29T19:59:20.123Z,41.34
2023-03-29T20:02:21.618Z,40.50
2023-03-29T20:05:24.131Z,40.33
2023-03-29T20:08:26.334Z,40.83
2023-03-29T20:11:28.839Z,41.08
2023-03-29T20:14:30.800Z,41.64
2023-03-29T20:17:35.401Z,41.95
2023-03-29T20:20:36.882Z,41.76
2023-03-29T20:23:38.376Z,41.53
2023-03-29T20:26:39.815Z,41.86
2023-03-29T20:29:41.287Z,42.01
2023-03-29T20:32:42.845Z,42.12
2023-03-29T20:35:45.752Z,42.27
2023-03-29T20:38:47.440Z,42.09
2023-03-29T20:41:51.532Z,42.38
2023-03-29T20:44:53.746Z,42.01
2023-03-29T20:48:02.087Z,41.99
2023-03-29T20:51:10.032Z,41.77
2023-03-29T20:54:11.508Z,41.15
2023-03-29T20:57:15.943Z,41.26
2023-03-29T21:00:19.714Z,41.01
2023-03-29T21:03:21.351Z,40.82
2023-03-29T21:06:24.325Z,41.40
2023-03-29T21:09:25.837Z,41.85
2023-03-29T21:12:27.501Z,41.98
2023-03-29T21:15:30.581Z,42.22
2023-03-29T21:18:32.364Z,42.71
2023-03-29T21:21:34.996Z,42.73
2023-03-29T21:24:36.566Z,42.60
2023-03-29T21:27:38.555Z,42.80
2023-03-29T21:30:40.159Z,42.90
2023-03-29T21:33:41.612Z,42.90
2023-03-29T21:36:43.049Z,43.09
2023-03-29T21:39:44.500Z,42.66
2023-03-29T21:42:46.267Z,42.65
2023-03-29T21:45:49.679Z,43.10
2023-03-29T21:48:51.220Z,42.78
2023-03-29T21:51:52.886Z,43.13
2023-03-29T21:54:54.319Z,43.18
2023-03-29T21:57:55.824Z,43.60
2023-03-29T22:00:57.402Z,43.41
2023-03-29T22:03:59.021Z,43.83
2023-03-29T22:07:00.531Z,43.62
2023-03-29T22:10:04.208Z,43.26
2023-03-29T22:13:05.910Z,42.89
2023-03-29T22:16:08.765Z,43.05
2023-03-29T22:19:10.648Z,43.07
2023-03-29T22:22:14.369Z,43.01
2023-03-29T22:25:19.525Z,43.01
2023-03-29T22:28:21.088Z,43.66
2023-03-29T22:31:24.119Z,43.73
2023-03-29T22:34:25.618Z,43.54
2023-03-29T22:37:27.072Z,43.51
2023-03-29T22:40:28.648Z,43.28
2023-03-29T22:43:30.485Z,43.35
2023-03-29T22:46:32.014Z,43.41
2023-03-29T22:49:33.658Z,43.40
2023-03-29T22:52:35.270Z,44.00
2023-03-29T22:55:37.165Z,44.81
2023-03-29T22:58:38.680Z,45.31
2023-03-29T23:01:40.541Z,45.57
2023-03-29T23:04:42.285Z,45.61
2023-03-29T23:07:43.825Z,45.43
2023-03-29T23:10:47.013Z,44.95
2023-03-29T23:13:48.829Z,44.32
2023-03-29T23:16:50.447Z,44.33
2023-03-29T23:19:52.052Z,44.29
2023-03-29T23:22:53.457Z,44.20
2023-03-29T23:25:55.843Z,44.46
2023-03-29T23:28:57.544Z,45.12
2023-03-29T23:31:59.555Z,45.05
2023-03-29T23:35:01.279Z,44.62
2023-03-29T23:38:03.493Z,44.75
2023-03-29T23:41:08.332Z,44.12
2023-03-29T23:44:10.212Z,44.24
2023-03-29T23:47:11.723Z,44.40
2023-03-29T23:50:14.522Z,44.50
2023-03-29T23:53:16.086Z,43.58
2023-03-29T23:56:17.593Z,42.86
2023-03-29T23:59:19.185Z,42.88
